Molltown, Pennsylvania
Current Conditions -  °F | °C
As of 10:54 PM on Friday 24 Oct 2014 (Local Time) from KRDG Reporting Station
Clear Clear  
Wind Chill: 55°   Ceiling: Unl
Heat Index: 55°   Visibility: 10mi
Dew Point: 36°   Wind: 6mph
Humidity: 49%   Direction: 290°WNW
Pressure: 29.89"   Gusts: NA
Location:  40.4504°N, 75.8012°W
Report Text: KRDG 250254Z AUTO 29005KT 10SM CLR 13/02 A2989 RMK AO2 SLP127 T01280022 51010
Loading
Personal Weather Stations






























Interactive Weather Map
Tropical Storm Tracking
New forecast layout! Learn more

10-Day Weather Forecast

Advertisements
Track Severe Weather on mobile